Main page
METAR-TAF:

METAR-TAF

Airports :

Herat International Airport

Herat, Afghanistan

latitude: 34-13N, longitude: 062-13E, elevation: 964 m

Current weather observation

The report was made 55 minutes ago, at 16:55 UTC
Calm wind
Temperature 10°C
Humidity 43%
Pressure 1025 hPa
Visibility 10 km or more
Scattered clouds at a height of 7000 ft
Broken clouds at a height of 9000 ft

METAR: OAHR 151655Z 00000KT 9999 SCT070 BKN090 10/M02 Q1025 RMK A3030 BLU

Time: 22:20 (17:50 UTC)

Forecast

The report was made 50 minutes ago, at 17:00 UTC
Forecast valid from 15 at 18 UTC to 16 at 18 UTC
Wind 3 kt from variable directions
Visibility 10 km or more
Scattered clouds at a height of 7000 ft
Broken clouds at a height of 9000 ft
Becoming
from 16 at 04 UTC to 16 at 06 UTC
Wind 8 kt from the West/Southwest
Visibility 10 km or more
Few clouds at a height of 7000 ft
Scattered clouds at a height of 9000 ft

TAF: OAHR 151700Z 1518/1618 VRB03KT 9999 SCT070 BKN090 BECMG 1604/1606 25008KT 9999 FEW070 SCT090

Weather observations and forecasts of more than 4000 airports (METAR and TAF reports).

The available stations are represented by yellow and red dots on the map.

Hover mouse over dot to see the name of the station.

Then click to see weather observations and forecasts.

To change the map : click on the green buttons with a black cross to zoom in, on the green button with a dash to zoom out, or on the green arrows for adjacent maps.


METAR-TAF: